« 定点 富山空港他 2024/4/19 fri | トップページ | ### RJNT log 202404 ### »

2024/04/21

定点 富山空港 2024/4/21 sun

家事を午後に回して、早目に河原

RJNT 202300Z VRB02KT 8000 FEW008 SCT090 BKN100 14/12 Q1014

20240421_rjnt_00ja13fj

昨晩、お泊りだった機体は、朝食中

20240421_rjnt_01ja12aj

こちらも早くも準備中。休日もフライトご苦労様です。

RJNT 210000Z 28006KT 250V320 9999 FEW008 SCT080 BKN090 15/11 Q1014

20240421_rjnt_02ja12aj

JA12AJ↑ C208B ASK

20240421_rjnt_03ja13fj

今日も青森行

20240421_rjnt_04ja13fj

FDA7901 RJNT-RJSA JA13FJ ERJ-175STD

20240421_rjnt_05hl8329

まだ黄砂の影響が残っています。

20240421_rjnt_06hl8329
20240421_rjnt_07hl8329

TWB9239 RKSI-RJNT HL8329 B737-8KN

RJNT 210100Z 27005KT 240V320 9999 FEW010 SCT080 BKN090 17/09 Q1014

20240421_rjnt_08jr1028d

1028D D201 隙間にちょこっと鉄

20240421_rjnt_09ja65an
20240421_rjnt_10ja65an

ANA315 RJTT-RJNT JA65AN B737-881

RJNT 210200Z 35006KT 320V020 9999 FEW020 SCT070 BKN080 16/10 Q1014

20240421_rjnt_11hl8329
20240421_rjnt_12hl8329
20240421_rjnt_13hl8329

TWB9239 RKSI-RJNT HL8329 B737-8KN

20240421_rjnt_14ja173b

JA173B→ BK117C-2 THK 富山県ドクターヘリ

20240421_rjnt_15b18652
20240421_rjnt_16b18652

CAL2170 RCTP-RJNT B-18652 B737-8Q8

20240421_rjnt_17ja65an
20240421_rjnt_18ja65an

ANA316 RJNT-RJTT JA65AN B737-881

RJNT 210300Z 35005KT 310V020 9999 FEW020 SCT070 BKN080 16/09 Q1014

20240421_rjnt_19ja87an
20240421_rjnt_20ja87an

ANA1182 RJCC-RJNT JA87AN B737-8AL

RJNT 210400Z 29003KT 250V360 9999 SCT070 BKN080 BKN090 16/08 Q1014

20240421_rjnt_21ja87an
20240421_rjnt_22ja87an

ANA1181 RJNT-RJCC JA87AN B737-8AL

20240421_rjnt_23b18652
20240421_rjnt_24b18652
20240421_rjnt_25b18652
20240421_rjnt_26b18652

CAL2171 RJCC-RCTP B-18652 B737-8Q8

雨も落ちてきたので、この辺りで離脱。

|

« 定点 富山空港他 2024/4/19 fri | トップページ | ### RJNT log 202404 ### »

富山空港」カテゴリの記事

コメント

コメントを書く



(ウェブ上には掲載しません)


コメントは記事投稿者が公開するまで表示されません。



« 定点 富山空港他 2024/4/19 fri | トップページ | ### RJNT log 202404 ### »